createdAt,value
2022-09-26T06:01:41.056Z,2.85
2022-09-26T06:04:57.076Z,3.13
2022-09-26T06:08:24.808Z,2.75
2022-09-26T06:11:58.357Z,2.40
2022-09-26T06:15:00.766Z,2.63
2022-09-26T06:18:04.752Z,2.38
2022-09-26T06:21:09.615Z,2.50
2022-09-26T06:24:13.153Z,2.55
2022-09-26T06:27:16.243Z,2.47
2022-09-26T06:30:18.123Z,2.28
2022-09-26T06:33:21.669Z,2.40
2022-09-26T06:36:34.082Z,2.42
2022-09-26T06:39:36.871Z,2.55
2022-09-26T06:42:40.291Z,2.40
2022-09-26T06:46:03.060Z,2.35
2022-09-26T06:49:16.619Z,2.42
2022-09-26T06:52:36.000Z,2.80
2022-09-26T06:55:38.095Z,3.05
2022-09-26T06:58:39.742Z,2.80
2022-09-26T07:01:44.314Z,2.70
2022-09-26T07:05:23.312Z,2.65
2022-09-26T07:08:49.989Z,2.42
2022-09-26T07:12:13.551Z,2.70
2022-09-26T07:15:17.036Z,2.67
2022-09-26T07:18:18.581Z,2.50
2022-09-26T07:21:35.049Z,2.80
2022-09-26T07:24:49.501Z,2.70
2022-09-26T07:27:52.376Z,2.22
2022-09-26T07:30:58.784Z,2.75
2022-09-26T07:34:18.735Z,2.63
2022-09-26T07:37:21.218Z,2.70
2022-09-26T07:40:23.763Z,2.40
2022-09-26T07:43:50.263Z,2.80
2022-09-26T07:47:06.236Z,3.10
2022-09-26T07:50:16.994Z,2.80
2022-09-26T07:53:41.411Z,2.70
2022-09-26T07:57:09.118Z,3.00
2022-09-26T08:00:31.354Z,3.13
2022-09-26T08:03:55.589Z,3.00
2022-09-26T08:07:02.307Z,3.20
2022-09-26T08:10:06.541Z,2.88
2022-09-26T08:13:44.870Z,2.60
2022-09-26T08:17:14.357Z,3.00
2022-09-26T08:20:16.473Z,3.53
2022-09-26T08:23:18.125Z,2.80
2022-09-26T08:26:43.903Z,2.60
2022-09-26T08:29:56.804Z,3.03
2022-09-26T08:33:01.247Z,2.97
2022-09-26T08:36:10.273Z,2.60
2022-09-26T08:39:33.302Z,2.53
2022-09-26T08:43:35.690Z,2.60
2022-09-26T08:47:30.079Z,2.90
2022-09-26T08:50:59.306Z,2.33
2022-09-26T08:54:11.179Z,2.60
2022-09-26T08:57:39.167Z,2.20
2022-09-26T09:00:41.665Z,1.98
2022-09-26T09:03:59.979Z,2.17
2022-09-26T09:07:20.602Z,2.10
2022-09-26T09:10:42.746Z,2.38
2022-09-26T09:14:20.543Z,2.33
2022-09-26T09:18:18.281Z,1.90
2022-09-26T09:21:44.706Z,2.10
2022-09-26T09:25:43.144Z,2.20
2022-09-26T09:28:56.875Z,1.80
2022-09-26T09:32:02.278Z,1.90
2022-09-26T09:35:30.117Z,2.00
2022-09-26T09:38:39.030Z,1.95
2022-09-26T09:41:55.435Z,1.98
2022-09-26T09:45:04.018Z,2.00
2022-09-26T09:48:12.417Z,2.03
2022-09-26T09:51:40.466Z,1.88
2022-09-26T09:54:50.419Z,1.90
2022-09-26T09:58:17.228Z,3.03
2022-09-26T10:01:28.509Z,2.10
2022-09-26T10:05:00.337Z,2.05
2022-09-26T10:08:04.481Z,1.92
2022-09-26T10:11:31.826Z,1.80
2022-09-26T10:14:56.558Z,1.50
2022-09-26T10:18:26.386Z,1.60
2022-09-26T10:21:42.423Z,1.63
2022-09-26T10:24:47.170Z,2.15
2022-09-26T10:27:57.859Z,1.73
2022-09-26T10:31:08.978Z,1.83
2022-09-26T10:34:30.381Z,1.88
2022-09-26T10:37:36.149Z,1.70
2022-09-26T10:40:55.091Z,1.95
2022-09-26T10:43:59.391Z,2.10
2022-09-26T10:47:31.398Z,1.90
2022-09-26T10:50:53.261Z,2.08
2022-09-26T10:54:04.376Z,1.90
2022-09-26T10:57:12.433Z,1.95
2022-09-26T11:00:40.117Z,2.20
2022-09-26T11:04:10.224Z,1.80
2022-09-26T11:11:15.184Z,1.88
2022-09-26T11:14:32.623Z,1.88
2022-09-26T11:17:47.920Z,1.77
2022-09-26T11:20:53.496Z,1.70
2022-09-26T11:30:48.271Z,1.60
2022-09-26T11:33:56.017Z,1.60
2022-09-26T11:41:16.516Z,1.50
2022-09-26T11:45:07.064Z,1.88
2022-09-26T11:48:43.854Z,1.83
2022-09-26T11:52:43.282Z,1.90
2022-09-26T11:56:07.880Z,1.77
2022-09-26T11:59:24.745Z,1.90
2022-09-26T12:02:35.328Z,1.90
2022-09-26T12:05:48.843Z,2.15
2022-09-26T12:08:53.209Z,1.90
2022-09-26T12:12:17.961Z,1.80
2022-09-26T12:15:31.632Z,1.90
2022-09-26T12:18:47.118Z,2.08
2022-09-26T12:22:28.441Z,2.00
2022-09-26T12:25:47.950Z,1.67
2022-09-26T12:29:06.308Z,1.92
2022-09-26T12:32:07.885Z,2.00
2022-09-26T12:35:37.437Z,1.98
2022-09-26T12:39:08.742Z,1.80
2022-09-26T12:42:35.037Z,1.80
2022-09-26T12:45:55.302Z,1.67
2022-09-26T12:49:55.066Z,2.10
2022-09-26T12:52:59.182Z,1.70
2022-09-26T12:56:23.025Z,1.60
2022-09-26T12:59:43.932Z,1.65
2022-09-26T13:03:13.525Z,1.67
2022-09-26T13:06:27.577Z,1.50
2022-09-26T13:09:38.919Z,1.50
2022-09-26T13:12:49.858Z,1.60
2022-09-26T13:15:58.000Z,1.40
2022-09-26T13:19:12.744Z,1.40
2022-09-26T13:22:34.401Z,1.20
2022-09-26T13:25:54.367Z,1.17
2022-09-26T13:29:23.306Z,1.23
2022-09-26T13:32:48.386Z,1.40
2022-09-26T13:35:52.245Z,1.10
2022-09-26T13:38:59.944Z,1.20
2022-09-26T13:42:22.614Z,1.20
2022-09-26T13:45:50.641Z,1.40
2022-09-26T13:49:02.211Z,1.25
2022-09-26T13:52:52.324Z,1.20
2022-09-26T13:56:41.221Z,1.20
2022-09-26T13:59:54.148Z,1.40
2022-09-26T14:03:14.016Z,1.30
2022-09-26T14:06:26.481Z,1.42
2022-09-26T14:09:42.052Z,1.20
2022-09-26T14:12:55.696Z,1.50
2022-09-26T14:16:28.197Z,1.50
2022-09-26T14:19:45.716Z,1.30
2022-09-26T14:22:52.595Z,1.20
2022-09-26T14:25:55.670Z,1.30
2022-09-26T14:29:25.276Z,1.38
2022-09-26T14:32:38.525Z,1.35
2022-09-26T14:35:40.105Z,1.50
2022-09-26T14:38:45.327Z,1.38
2022-09-26T14:41:46.936Z,2.00
2022-09-26T14:44:55.486Z,1.50
2022-09-26T14:48:12.838Z,1.50
2022-09-26T14:51:19.174Z,1.40
2022-09-26T14:54:31.902Z,1.40
2022-09-26T14:57:34.653Z,1.45
2022-09-26T15:00:43.333Z,1.20
2022-09-26T15:03:56.918Z,1.23
2022-09-26T15:07:03.925Z,1.30
2022-09-26T15:10:14.293Z,1.20
2022-09-26T15:13:30.875Z,1.27
2022-09-26T15:16:40.549Z,1.17
2022-09-26T15:19:49.933Z,1.20
2022-09-26T15:22:57.215Z,1.20
2022-09-26T15:26:06.052Z,1.10
2022-09-26T15:29:12.386Z,1.23
2022-09-26T15:32:19.141Z,1.20
2022-09-26T15:38:23.822Z,1.00
2022-09-26T15:41:43.910Z,1.00
2022-09-26T15:44:54.872Z,1.20
2022-09-26T15:47:58.839Z,1.10
2022-09-26T15:51:15.688Z,1.13
2022-09-26T15:54:23.780Z,1.00
2022-09-26T15:57:28.034Z,1.17
2022-09-26T16:00:37.537Z,1.10
2022-09-26T16:03:57.320Z,1.15
2022-09-26T16:07:14.944Z,1.30
2022-09-26T16:10:28.509Z,1.15
2022-09-26T16:13:39.992Z,1.20
2022-09-26T16:16:41.653Z,1.08
2022-09-26T16:19:53.688Z,1.27
2022-09-26T16:23:03.375Z,4.10
2022-09-26T16:26:31.216Z,1.60
2022-09-26T16:29:35.373Z,3.20
2022-09-26T16:32:37.345Z,1.60
2022-09-26T16:35:47.385Z,3.05
2022-09-26T16:39:03.815Z,1.55
2022-09-26T16:42:16.969Z,3.50
2022-09-26T16:45:18.950Z,2.88
2022-09-26T16:48:38.978Z,3.92
2022-09-26T16:51:40.925Z,2.90
2022-09-26T16:54:42.647Z,2.10
2022-09-26T16:57:55.802Z,1.55
2022-09-26T17:01:15.943Z,2.03
2022-09-26T17:04:19.536Z,1.50
2022-09-26T17:07:22.849Z,1.52
2022-09-26T17:10:25.610Z,1.70
2022-09-26T17:13:32.833Z,1.88
2022-09-26T17:16:34.476Z,1.67
2022-09-26T17:19:41.164Z,1.48
2022-09-26T17:22:42.807Z,1.50
2022-09-26T17:25:48.165Z,1.95
2022-09-26T17:28:52.853Z,1.40
2022-09-26T17:31:56.031Z,1.60
2022-09-26T17:35:00.894Z,1.55
2022-09-26T17:38:03.062Z,2.40
2022-09-26T17:41:04.759Z,1.52
2022-09-26T17:44:06.411Z,1.60
2022-09-26T17:47:10.606Z,1.70
2022-09-26T17:50:23.157Z,1.40
2022-09-26T17:53:25.455Z,1.40
2022-09-26T17:56:27.176Z,1.90
2022-09-26T17:59:29.102Z,1.98
2022-09-26T20:54:46.885Z,2.15
2022-09-26T21:48:36.106Z,1.70
2022-09-26T21:55:32.012Z,1.80
2022-09-26T21:59:24.443Z,1.65
2022-09-26T22:02:28.097Z,1.50
2022-09-26T22:06:16.659Z,1.52
2022-09-26T22:09:38.246Z,1.40
2022-09-26T22:12:40.499Z,1.50
2022-09-26T22:15:42.270Z,1.40
2022-09-26T22:18:44.336Z,1.80
2022-09-26T22:21:46.229Z,1.48
2022-09-26T22:24:50.664Z,1.25
2022-09-26T22:27:52.519Z,1.50
2022-09-26T22:31:06.970Z,1.40
2022-09-26T22:34:08.991Z,1.40
2022-09-26T22:37:13.451Z,1.60
2022-09-26T22:40:18.072Z,1.35
2022-09-26T22:43:21.149Z,1.40
2022-09-26T22:46:25.925Z,1.50
2022-09-26T22:49:27.952Z,1.40
2022-09-26T22:52:31.041Z,1.20
2022-09-26T22:55:37.559Z,1.42
2022-09-26T22:58:43.950Z,1.17
2022-09-26T23:01:59.570Z,1.30
2022-09-26T23:05:04.509Z,1.30
2022-09-26T23:08:06.314Z,1.40
2022-09-26T23:11:28.657Z,1.20
2022-09-26T23:14:34.408Z,1.38
2022-09-26T23:17:37.093Z,1.20
2022-09-26T23:20:43.025Z,1.17
2022-09-26T23:23:46.528Z,1.20
2022-09-26T23:26:48.297Z,1.20
2022-09-26T23:29:50.019Z,1.10
2022-09-26T23:32:51.699Z,1.10
2022-09-26T23:35:58.041Z,1.17
2022-09-26T23:38:59.900Z,1.17
2022-09-26T23:42:02.708Z,1.13
2022-09-26T23:45:04.980Z,1.50
2022-09-26T23:48:06.677Z,1.20
2022-09-26T23:51:09.320Z,1.20
2022-09-26T23:54:11.342Z,1.20
2022-09-26T23:57:12.948Z,1.15
